createdAt,value
2022-12-27T00:00:54.903Z,6.97
2022-12-27T00:01:54.861Z,7.01
2022-12-27T00:02:54.776Z,6.93
2022-12-27T00:03:54.672Z,6.94
2022-12-27T00:04:54.599Z,6.91
2022-12-27T00:05:54.815Z,6.76
2022-12-27T00:06:54.471Z,6.79
2022-12-27T00:07:54.399Z,6.76
2022-12-27T00:08:54.335Z,6.76
2022-12-27T00:09:54.280Z,6.79
2022-12-27T00:10:54.203Z,6.71
2022-12-27T00:11:59.819Z,6.68
2022-12-27T00:12:54.054Z,6.61
2022-12-27T00:13:54.003Z,6.63
2022-12-27T00:14:53.926Z,6.57
2022-12-27T00:15:53.856Z,6.64
2022-12-27T00:16:53.784Z,6.60
2022-12-27T00:17:53.720Z,6.50
2022-12-27T00:18:53.652Z,6.50
2022-12-27T00:19:53.619Z,6.38
2022-12-27T00:20:53.594Z,6.42
2022-12-27T00:21:53.458Z,6.36
2022-12-27T00:22:53.380Z,6.36
2022-12-27T00:23:53.336Z,6.40
2022-12-27T00:24:53.265Z,6.39
2022-12-27T00:25:53.177Z,6.42
2022-12-27T00:26:53.099Z,6.32
2022-12-27T00:27:53.036Z,6.30
2022-12-27T00:28:52.962Z,6.32
2022-12-27T00:29:52.896Z,6.24
2022-12-27T00:30:52.829Z,6.28
2022-12-27T00:31:52.796Z,6.28
2022-12-27T00:32:52.692Z,6.33
2022-12-27T00:33:52.734Z,6.20
2022-12-27T00:34:52.574Z,6.25
2022-12-27T00:35:52.494Z,6.21
2022-12-27T00:36:52.423Z,6.21
2022-12-27T00:37:52.368Z,6.21
2022-12-27T00:38:52.277Z,6.17
2022-12-27T00:39:52.217Z,6.13
2022-12-27T00:40:52.173Z,6.10
2022-12-27T00:41:52.078Z,6.06
2022-12-27T00:42:52.003Z,6.05
2022-12-27T00:43:51.958Z,6.08
2022-12-27T00:44:51.874Z,5.98
2022-12-27T00:45:51.830Z,6.01
2022-12-27T00:46:51.728Z,5.93
2022-12-27T00:47:51.672Z,5.96
2022-12-27T00:48:51.595Z,5.96
2022-12-27T00:49:51.536Z,5.88
2022-12-27T00:50:51.460Z,5.85
2022-12-27T00:51:51.390Z,5.92
2022-12-27T00:52:51.315Z,5.87
2022-12-27T00:53:51.251Z,5.93
2022-12-27T00:54:51.191Z,5.96
2022-12-27T00:55:51.113Z,5.95
2022-12-27T00:56:51.059Z,5.90
2022-12-27T00:57:50.976Z,5.83
2022-12-27T00:58:50.917Z,5.83
2022-12-27T00:59:50.835Z,5.78
2022-12-27T01:00:50.794Z,5.75
2022-12-27T01:01:50.860Z,5.67
2022-12-27T01:02:50.635Z,5.74
2022-12-27T01:03:50.629Z,5.69
2022-12-27T01:04:50.498Z,5.75
2022-12-27T01:05:50.439Z,5.70
2022-12-27T01:06:50.363Z,5.74
2022-12-27T01:07:50.290Z,5.74
2022-12-27T01:08:50.278Z,5.67
2022-12-27T01:09:50.155Z,5.65
2022-12-27T01:10:50.077Z,5.69
2022-12-27T01:11:50.017Z,5.65
2022-12-27T01:12:49.951Z,5.63
2022-12-27T01:13:49.882Z,5.66
2022-12-27T01:14:49.810Z,5.67
2022-12-27T01:15:49.731Z,5.63
2022-12-27T01:16:49.724Z,5.56
2022-12-27T01:17:49.599Z,5.59
2022-12-27T01:18:49.546Z,5.63
2022-12-27T01:19:49.457Z,5.52
2022-12-27T01:20:49.395Z,5.56
2022-12-27T01:21:49.337Z,5.58
2022-12-27T01:22:49.250Z,5.52
2022-12-27T01:23:49.177Z,5.55
2022-12-27T01:24:49.115Z,5.62
2022-12-27T01:25:49.056Z,5.52
2022-12-27T01:26:48.988Z,5.48
2022-12-27T01:27:48.911Z,5.51
2022-12-27T01:28:48.837Z,5.48
2022-12-27T01:29:48.798Z,5.40
2022-12-27T01:30:48.696Z,5.42
2022-12-27T01:31:48.698Z,5.44
2022-12-27T01:32:48.558Z,5.47
2022-12-27T01:33:48.496Z,5.44
2022-12-27T01:34:48.418Z,5.40
2022-12-27T01:35:48.351Z,5.40
2022-12-27T01:36:48.285Z,5.45
2022-12-27T01:37:48.213Z,5.42
2022-12-27T01:38:48.200Z,5.37
2022-12-27T01:39:48.070Z,5.40
2022-12-27T01:40:48.006Z,5.41
2022-12-27T01:41:47.933Z,5.35
2022-12-27T01:42:47.877Z,5.29
2022-12-27T01:43:47.795Z,5.38
2022-12-27T01:44:47.731Z,5.33
2022-12-27T01:45:47.677Z,5.27
2022-12-27T01:46:47.592Z,5.37
2022-12-27T01:47:47.527Z,5.27
2022-12-27T01:48:47.447Z,5.17
2022-12-27T01:49:47.376Z,5.20
2022-12-27T01:50:47.314Z,5.35
2022-12-27T01:51:47.259Z,5.30
2022-12-27T01:52:47.172Z,5.27
2022-12-27T01:53:47.111Z,5.20
2022-12-27T01:54:47.032Z,5.26
2022-12-27T01:55:47.005Z,5.24
2022-12-27T01:56:46.905Z,5.14
2022-12-27T01:57:46.823Z,5.19
2022-12-27T01:58:46.757Z,5.19
2022-12-27T01:59:46.696Z,5.15
2022-12-27T02:00:46.720Z,5.08
2022-12-27T02:01:46.599Z,5.22
2022-12-27T02:02:46.578Z,5.08
2022-12-27T02:03:46.415Z,5.09
2022-12-27T02:04:46.334Z,5.08
2022-12-27T02:05:46.263Z,5.06
2022-12-27T02:06:46.194Z,5.09
2022-12-27T02:07:46.136Z,5.05
2022-12-27T02:08:46.080Z,5.06
2022-12-27T02:09:46.005Z,5.08
2022-12-27T02:10:45.922Z,5.05
2022-12-27T02:11:45.856Z,5.09
2022-12-27T02:12:45.817Z,5.05
2022-12-27T02:13:45.710Z,5.09
2022-12-27T02:14:45.650Z,5.06
2022-12-27T02:15:45.569Z,5.04
2022-12-27T02:16:45.595Z,5.12
2022-12-27T02:17:45.433Z,5.06
2022-12-27T02:18:45.372Z,5.06
2022-12-27T02:19:45.293Z,5.02
2022-12-27T02:20:45.233Z,5.05
2022-12-27T02:21:45.154Z,5.06
2022-12-27T02:22:45.084Z,5.08
2022-12-27T02:23:45.015Z,5.04
2022-12-27T02:24:44.955Z,5.06
2022-12-27T02:25:44.879Z,5.05
2022-12-27T02:26:44.807Z,5.05
2022-12-27T02:27:44.767Z,4.96
2022-12-27T02:28:44.676Z,4.94
2022-12-27T02:29:44.597Z,4.87
2022-12-27T02:30:44.562Z,4.87
2022-12-27T02:31:44.458Z,4.88
2022-12-27T02:32:44.391Z,4.80
2022-12-27T02:33:44.329Z,4.77
2022-12-27T02:34:44.319Z,4.72
2022-12-27T02:35:44.178Z,4.79
2022-12-27T02:36:44.118Z,4.69
2022-12-27T02:37:44.048Z,4.74
2022-12-27T02:38:43.971Z,4.71
2022-12-27T02:39:43.911Z,4.67
2022-12-27T02:40:43.835Z,4.59
2022-12-27T02:41:43.769Z,4.74
2022-12-27T02:42:43.745Z,4.57
2022-12-27T02:43:43.623Z,4.59
2022-12-27T02:44:43.560Z,4.56
2022-12-27T02:45:43.562Z,4.61
2022-12-27T02:46:43.484Z,4.51
2022-12-27T02:47:43.350Z,4.59
2022-12-27T02:48:43.283Z,4.53
2022-12-27T02:49:43.221Z,4.50
2022-12-27T02:50:43.156Z,4.50
2022-12-27T02:51:43.070Z,4.50
2022-12-27T02:52:43.002Z,4.53
2022-12-27T02:53:42.929Z,4.53
2022-12-27T02:54:42.862Z,4.54
2022-12-27T02:55:42.798Z,4.61
2022-12-27T02:56:42.722Z,4.50
2022-12-27T02:57:42.651Z,4.49
2022-12-27T02:58:42.587Z,4.54
2022-12-27T02:59:42.508Z,4.43
2022-12-27T03:00:42.448Z,4.50
2022-12-27T03:01:42.474Z,4.47
2022-12-27T03:02:42.387Z,4.54
2022-12-27T03:03:44.713Z,4.50
2022-12-27T03:04:42.169Z,4.46
2022-12-27T03:05:42.088Z,4.51
2022-12-27T03:06:42.108Z,4.49
2022-12-27T03:07:41.974Z,4.47
2022-12-27T03:08:41.884Z,4.44
2022-12-27T03:09:41.828Z,4.47
2022-12-27T03:10:41.755Z,4.42
2022-12-27T03:11:41.805Z,4.44
2022-12-27T03:12:41.608Z,4.49
2022-12-27T03:13:41.559Z,4.32
2022-12-27T03:14:41.463Z,4.44
2022-12-27T03:15:41.414Z,4.50
2022-12-27T03:16:41.332Z,4.42
2022-12-27T03:17:41.256Z,4.44
2022-12-27T03:18:41.185Z,4.43
2022-12-27T03:19:41.171Z,4.50
2022-12-27T03:20:41.045Z,4.43
2022-12-27T03:21:40.984Z,4.38
2022-12-27T03:22:40.909Z,4.42
2022-12-27T03:23:40.831Z,4.34
2022-12-27T03:24:40.809Z,4.35
2022-12-27T03:25:40.747Z,4.46
2022-12-27T03:26:40.625Z,4.47
2022-12-27T03:27:40.677Z,4.44
2022-12-27T03:28:40.495Z,4.47
2022-12-27T03:29:40.415Z,4.35
2022-12-27T03:30:40.368Z,4.34
2022-12-27T03:31:40.299Z,4.35
2022-12-27T03:32:40.203Z,4.34
2022-12-27T03:33:40.133Z,4.44
2022-12-27T03:34:40.100Z,4.32
2022-12-27T03:35:40.007Z,4.34
2022-12-27T03:36:39.932Z,4.32
2022-12-27T03:37:39.852Z,4.39
2022-12-27T03:38:39.803Z,4.38
2022-12-27T03:39:39.713Z,4.47
2022-12-27T03:40:39.656Z,4.35
2022-12-27T03:41:39.601Z,4.39
2022-12-27T03:42:39.507Z,4.35
2022-12-27T03:43:39.438Z,4.36
2022-12-27T03:44:39.399Z,4.46
2022-12-27T03:45:39.295Z,4.46
2022-12-27T03:46:39.389Z,4.43
2022-12-27T03:47:39.153Z,4.43
2022-12-27T03:48:39.085Z,4.44
2022-12-27T03:49:39.020Z,4.50
2022-12-27T03:50:38.944Z,4.43
2022-12-27T03:51:38.977Z,4.46
2022-12-27T03:52:38.809Z,4.50
2022-12-27T03:53:38.749Z,4.38
2022-12-27T03:54:38.675Z,4.36
2022-12-27T03:55:38.597Z,4.44
2022-12-27T03:56:38.527Z,4.35
2022-12-27T03:57:38.459Z,4.50
2022-12-27T03:58:38.401Z,4.35
2022-12-27T03:59:38.316Z,4.35
2022-12-27T04:00:38.250Z,4.47
2022-12-27T04:01:38.265Z,4.44
2022-12-27T04:02:38.267Z,4.35
2022-12-27T04:03:38.081Z,4.35
2022-12-27T04:04:37.967Z,4.34
2022-12-27T04:05:37.895Z,4.32
2022-12-27T04:06:37.827Z,4.43
2022-12-27T04:07:37.771Z,4.32
2022-12-27T04:08:37.729Z,4.34
2022-12-27T04:09:37.615Z,4.49
2022-12-27T04:10:37.545Z,4.34
2022-12-27T04:11:37.477Z,4.44
2022-12-27T04:12:37.406Z,4.35
2022-12-27T04:13:37.335Z,4.42
2022-12-27T04:14:37.277Z,4.32
2022-12-27T04:15:37.208Z,4.31
2022-12-27T04:16:37.141Z,4.34
2022-12-27T04:17:37.076Z,4.42
2022-12-27T04:18:36.990Z,4.44
2022-12-27T04:19:36.916Z,4.36
2022-12-27T04:20:36.843Z,4.34
2022-12-27T04:21:36.773Z,4.47
2022-12-27T04:22:36.727Z,4.46
2022-12-27T04:23:36.633Z,4.43
2022-12-27T04:24:36.566Z,4.49
2022-12-27T04:25:36.495Z,4.46
2022-12-27T04:26:36.432Z,4.43
2022-12-27T04:27:36.369Z,4.44
2022-12-27T04:28:36.294Z,4.44
2022-12-27T04:29:36.224Z,4.39
2022-12-27T04:30:36.141Z,4.34
2022-12-27T04:31:36.226Z,4.46
2022-12-27T04:32:36.003Z,4.44
2022-12-27T04:33:35.934Z,4.39
2022-12-27T04:34:35.869Z,4.35
2022-12-27T04:35:35.794Z,4.46
2022-12-27T04:36:35.736Z,4.47
2022-12-27T04:37:35.651Z,4.44
2022-12-27T04:38:35.584Z,4.53
2022-12-27T04:39:35.524Z,4.50
2022-12-27T04:40:35.442Z,4.49
2022-12-27T04:41:35.392Z,4.49
2022-12-27T04:42:35.325Z,4.53
2022-12-27T04:43:35.237Z,4.51
2022-12-27T04:44:35.163Z,4.62
2022-12-27T04:45:35.097Z,4.56
2022-12-27T04:46:35.053Z,4.53
2022-12-27T04:47:34.952Z,4.53
2022-12-27T04:48:34.894Z,4.50
2022-12-27T04:49:34.825Z,4.42
2022-12-27T04:50:34.742Z,4.39
2022-12-27T04:51:34.672Z,4.49
2022-12-27T04:52:34.606Z,4.56
2022-12-27T04:53:34.543Z,4.53
2022-12-27T04:54:34.462Z,4.47
2022-12-27T04:55:34.399Z,4.54
2022-12-27T04:56:34.323Z,4.53
2022-12-27T04:57:34.276Z,4.59
2022-12-27T04:58:34.188Z,4.62
2022-12-27T04:59:34.110Z,4.69
2022-12-27T05:00:34.043Z,4.65
2022-12-27T05:01:34.061Z,4.64
2022-12-27T05:02:34.084Z,4.65
2022-12-27T05:03:33.860Z,4.50
2022-12-27T05:04:33.763Z,4.54
2022-12-27T05:05:33.698Z,4.57
2022-12-27T05:06:33.627Z,4.67
2022-12-27T05:07:33.595Z,4.68
2022-12-27T05:08:33.503Z,4.68
2022-12-27T05:09:33.414Z,4.68
2022-12-27T05:10:33.348Z,4.57
2022-12-27T05:11:33.297Z,4.62
2022-12-27T05:12:33.205Z,4.65
2022-12-27T05:13:33.131Z,4.57
2022-12-27T05:14:33.068Z,4.62
2022-12-27T05:15:33.017Z,4.67
2022-12-27T05:16:32.974Z,4.68
2022-12-27T05:17:32.867Z,4.64
2022-12-27T05:18:32.786Z,4.71
2022-12-27T05:19:32.782Z,4.59
2022-12-27T05:20:32.643Z,4.57
2022-12-27T05:21:32.577Z,4.67
2022-12-27T05:22:32.510Z,4.67
2022-12-27T05:23:32.455Z,4.62
2022-12-27T05:24:32.370Z,4.67
2022-12-27T05:25:32.293Z,4.68
2022-12-27T05:26:32.232Z,4.68
2022-12-27T05:27:32.153Z,4.64
2022-12-27T05:28:32.097Z,4.67
2022-12-27T05:29:32.026Z,4.64
2022-12-27T05:30:31.966Z,4.57
2022-12-27T05:31:31.969Z,4.64
2022-12-27T05:32:31.803Z,4.69
2022-12-27T05:33:31.738Z,4.62
2022-12-27T05:34:31.673Z,4.69
2022-12-27T05:35:31.600Z,4.71
2022-12-27T05:36:31.526Z,4.59
2022-12-27T05:37:31.453Z,4.75
2022-12-27T05:38:31.383Z,4.74
2022-12-27T05:39:31.315Z,4.67
2022-12-27T05:40:31.249Z,4.74
2022-12-27T05:41:31.235Z,4.75
2022-12-27T05:42:31.113Z,4.72
2022-12-27T05:43:31.035Z,4.75
2022-12-27T05:44:30.967Z,4.71
2022-12-27T05:45:30.899Z,4.72
2022-12-27T05:46:30.854Z,4.77
2022-12-27T05:47:30.760Z,4.80
2022-12-27T05:48:30.685Z,4.86
2022-12-27T05:49:30.619Z,4.91
2022-12-27T05:50:30.543Z,4.88
2022-12-27T05:51:30.479Z,4.88
2022-12-27T05:52:30.417Z,4.84
2022-12-27T05:53:30.338Z,4.77
2022-12-27T05:54:30.266Z,4.84
2022-12-27T05:55:30.201Z,4.71
2022-12-27T05:56:30.126Z,4.79
2022-12-27T05:57:30.061Z,4.79
2022-12-27T05:58:29.991Z,4.77
2022-12-27T05:59:29.926Z,4.72
2022-12-27T06:00:29.850Z,4.72
2022-12-27T06:01:29.852Z,4.72
2022-12-27T06:02:29.800Z,4.74
2022-12-27T06:03:29.845Z,4.83
2022-12-27T06:04:29.566Z,4.77
2022-12-27T06:05:29.511Z,4.72
2022-12-27T06:06:29.430Z,4.86
2022-12-27T06:07:29.388Z,4.79
2022-12-27T06:08:29.300Z,4.83
2022-12-27T06:09:29.221Z,4.72
2022-12-27T06:10:29.151Z,4.79
2022-12-27T06:11:29.092Z,4.77
2022-12-27T06:12:29.017Z,4.75
2022-12-27T06:13:28.941Z,4.75
2022-12-27T06:14:28.869Z,4.84
2022-12-27T06:15:28.801Z,4.74
2022-12-27T06:16:28.749Z,4.77
2022-12-27T06:17:28.664Z,4.71
2022-12-27T06:18:28.593Z,4.72
2022-12-27T06:19:28.520Z,4.64
2022-12-27T06:20:28.451Z,4.67
2022-12-27T06:21:28.387Z,4.68
2022-12-27T06:22:28.318Z,4.59
2022-12-27T06:23:28.248Z,4.62
2022-12-27T06:24:28.171Z,4.57
2022-12-27T06:25:28.107Z,4.56
2022-12-27T06:26:28.067Z,4.57
2022-12-27T06:27:27.965Z,4.59
2022-12-27T06:28:27.896Z,4.72
2022-12-27T06:29:27.825Z,4.77
2022-12-27T06:30:32.888Z,4.71
2022-12-27T06:31:27.731Z,4.62
2022-12-27T06:32:27.611Z,4.68
2022-12-27T06:33:27.542Z,4.75
2022-12-27T06:34:27.472Z,4.72
2022-12-27T06:35:27.409Z,4.74
2022-12-27T06:36:27.336Z,4.79
2022-12-27T06:37:27.265Z,4.83
2022-12-27T06:38:27.191Z,4.75
2022-12-27T06:39:27.137Z,4.83
2022-12-27T06:40:27.057Z,4.83
2022-12-27T06:41:27.040Z,4.84
2022-12-27T06:42:26.911Z,4.75
2022-12-27T06:43:26.852Z,4.80
2022-12-27T06:44:26.785Z,4.79
2022-12-27T06:45:26.809Z,4.77
2022-12-27T06:46:26.701Z,4.86
2022-12-27T06:47:26.565Z,4.88
2022-12-27T06:48:26.496Z,4.88
2022-12-27T06:49:26.425Z,4.99
2022-12-27T06:50:26.358Z,4.94
2022-12-27T06:51:26.296Z,4.93
2022-12-27T06:52:26.220Z,4.96
2022-12-27T06:53:26.146Z,5.04
2022-12-27T06:54:26.077Z,4.97
2022-12-27T06:55:26.014Z,5.01
2022-12-27T06:56:25.941Z,4.93
2022-12-27T06:57:25.868Z,5.11
2022-12-27T06:58:25.817Z,4.99
2022-12-27T06:59:25.728Z,5.01
2022-12-27T07:00:25.657Z,4.94
2022-12-27T07:01:25.707Z,4.93
2022-12-27T07:02:25.633Z,4.84
2022-12-27T07:03:25.454Z,4.80
2022-12-27T07:04:25.382Z,4.84
2022-12-27T07:05:25.311Z,4.72
2022-12-27T07:06:25.239Z,4.83
2022-12-27T07:07:25.196Z,4.86
2022-12-27T07:08:25.100Z,5.02
2022-12-27T07:09:25.036Z,5.01
2022-12-27T07:10:24.958Z,5.08
2022-12-27T07:11:24.899Z,5.06
2022-12-27T07:12:24.824Z,5.04
2022-12-27T07:13:24.753Z,5.08
2022-12-27T07:14:24.693Z,5.05
2022-12-27T07:15:24.640Z,5.06
2022-12-27T07:16:24.592Z,5.11
2022-12-27T07:17:24.475Z,5.14
2022-12-27T07:18:24.402Z,5.11
2022-12-27T07:19:24.336Z,5.08
2022-12-27T07:20:24.263Z,5.12
2022-12-27T07:21:24.199Z,5.15
2022-12-27T07:22:24.127Z,5.12
2022-12-27T07:23:24.070Z,5.20
2022-12-27T07:24:23.996Z,5.15
2022-12-27T07:25:23.922Z,5.24
2022-12-27T07:26:23.849Z,5.20
2022-12-27T07:27:23.857Z,5.29
2022-12-27T07:28:23.717Z,5.26
2022-12-27T07:29:23.643Z,5.33
2022-12-27T07:30:23.577Z,5.37
2022-12-27T07:31:23.536Z,5.32
2022-12-27T07:32:23.439Z,5.30
2022-12-27T07:33:23.361Z,5.41
2022-12-27T07:34:23.293Z,5.40
2022-12-27T07:35:23.239Z,5.33
2022-12-27T07:36:23.159Z,5.38
2022-12-27T07:37:23.085Z,5.27
2022-12-27T07:38:23.015Z,5.23
2022-12-27T07:39:22.978Z,5.24
2022-12-27T07:40:22.878Z,5.22
2022-12-27T07:41:22.815Z,5.19
2022-12-27T07:42:22.734Z,5.29
2022-12-27T07:43:22.677Z,5.24
2022-12-27T07:44:22.603Z,5.24
2022-12-27T07:45:22.530Z,5.26
2022-12-27T07:46:22.464Z,5.41
2022-12-27T07:47:22.392Z,5.35
2022-12-27T07:48:22.322Z,5.30
2022-12-27T07:49:22.256Z,5.41
2022-12-27T07:50:22.181Z,5.35
2022-12-27T07:51:22.115Z,5.45
2022-12-27T07:52:22.041Z,5.44
2022-12-27T07:53:21.977Z,5.44
2022-12-27T07:54:21.906Z,5.44
2022-12-27T07:55:21.838Z,5.47
2022-12-27T07:56:25.802Z,5.44
2022-12-27T07:57:21.703Z,5.45
2022-12-27T07:58:21.630Z,5.42
2022-12-27T07:59:21.568Z,5.48
2022-12-27T08:00:21.495Z,5.45
2022-12-27T08:01:21.516Z,5.42
2022-12-27T08:02:21.436Z,5.40
2022-12-27T08:03:21.314Z,5.38
2022-12-27T08:04:21.220Z,5.40
2022-12-27T08:05:25.951Z,5.44
2022-12-27T08:06:21.081Z,5.49
2022-12-27T08:07:21.024Z,5.33
2022-12-27T08:08:20.940Z,5.33
2022-12-27T08:09:20.882Z,5.26
2022-12-27T08:10:20.806Z,5.41
2022-12-27T08:11:20.742Z,5.37
2022-12-27T08:12:20.660Z,5.26
2022-12-27T08:13:20.597Z,5.22
2022-12-27T08:14:20.520Z,5.24
2022-12-27T08:15:20.455Z,5.23
2022-12-27T08:16:20.430Z,5.24
2022-12-27T08:17:20.366Z,5.20
2022-12-27T08:18:20.247Z,5.22
2022-12-27T08:19:20.188Z,5.37
2022-12-27T08:20:20.127Z,5.29
2022-12-27T08:21:20.045Z,5.37
2022-12-27T08:22:19.976Z,5.29
2022-12-27T08:23:19.911Z,5.38
2022-12-27T08:24:19.829Z,5.37
2022-12-27T08:25:19.765Z,5.38
2022-12-27T08:26:19.696Z,5.41
2022-12-27T08:27:19.627Z,5.30
2022-12-27T08:28:19.553Z,5.33
2022-12-27T08:29:19.500Z,5.37
2022-12-27T08:30:19.415Z,5.41
2022-12-27T08:31:19.395Z,5.33
2022-12-27T08:32:19.295Z,5.38
2022-12-27T08:33:19.210Z,5.42
2022-12-27T08:34:19.140Z,5.44
2022-12-27T08:35:50.991Z,5.45
2022-12-27T08:37:18.966Z,5.38
2022-12-27T08:38:18.867Z,5.38
2022-12-27T08:39:18.795Z,5.47
2022-12-27T08:40:18.734Z,5.47
2022-12-27T08:41:18.660Z,5.44
2022-12-27T08:42:18.586Z,5.47
2022-12-27T08:43:18.526Z,5.44
2022-12-27T08:44:18.452Z,5.49
2022-12-27T08:45:18.385Z,5.40
2022-12-27T08:46:18.341Z,5.40
2022-12-27T08:47:18.253Z,5.48
2022-12-27T08:48:18.264Z,5.47
2022-12-27T08:49:18.114Z,5.48
2022-12-27T08:50:18.043Z,5.49
2022-12-27T08:51:26.580Z,5.55
2022-12-27T08:52:17.901Z,5.52
2022-12-27T08:53:17.837Z,5.52
2022-12-27T08:54:17.762Z,5.56
2022-12-27T08:55:17.694Z,5.52
2022-12-27T08:56:17.623Z,5.56
2022-12-27T08:57:17.563Z,5.58
2022-12-27T08:58:17.489Z,5.59
2022-12-27T08:59:17.427Z,5.56
2022-12-27T09:00:17.356Z,5.56
2022-12-27T09:01:17.435Z,5.63
2022-12-27T09:02:17.303Z,5.63
2022-12-27T09:03:17.212Z,5.67
2022-12-27T09:04:17.076Z,5.67
2022-12-27T09:05:17.012Z,5.73
2022-12-27T09:06:16.933Z,5.81
2022-12-27T09:07:16.867Z,5.69
2022-12-27T09:08:16.806Z,5.74
2022-12-27T09:09:16.728Z,5.67
2022-12-27T09:10:16.656Z,5.77
2022-12-27T09:11:16.592Z,5.84
2022-12-27T09:12:16.519Z,5.87
2022-12-27T09:13:16.455Z,5.93
2022-12-27T09:14:16.390Z,5.92
2022-12-27T09:15:16.319Z,5.98
2022-12-27T09:16:16.260Z,5.90
2022-12-27T09:17:16.179Z,5.93
2022-12-27T09:18:16.112Z,5.95
2022-12-27T09:19:16.043Z,5.90
2022-12-27T09:20:15.971Z,5.90
2022-12-27T09:21:15.909Z,5.93
2022-12-27T09:22:15.833Z,5.99
2022-12-27T09:23:15.765Z,6.01
2022-12-27T09:24:15.698Z,5.98
2022-12-27T09:25:15.629Z,6.01
2022-12-27T09:26:15.558Z,5.96
2022-12-27T09:27:15.499Z,5.96
2022-12-27T09:28:15.422Z,5.95
2022-12-27T09:29:15.365Z,5.98
2022-12-27T09:30:15.286Z,5.92
2022-12-27T09:31:15.248Z,5.93
2022-12-27T09:32:15.160Z,5.90
2022-12-27T09:33:15.082Z,6.03
2022-12-27T09:34:15.015Z,6.42
2022-12-27T09:35:14.958Z,6.64
2022-12-27T09:36:14.882Z,6.91
2022-12-27T09:37:14.810Z,7.33
2022-12-27T09:38:14.742Z,7.47
2022-12-27T09:39:14.673Z,7.62
2022-12-27T09:40:14.612Z,7.79
2022-12-27T09:41:19.257Z,7.71
2022-12-27T09:43:22.566Z,7.19
2022-12-27T09:44:14.337Z,7.00
2022-12-27T09:45:14.273Z,6.91
2022-12-27T09:46:14.291Z,6.93
2022-12-27T09:47:14.149Z,6.89
2022-12-27T09:48:14.084Z,6.82
2022-12-27T09:49:14.023Z,6.75
2022-12-27T09:50:13.955Z,6.76
2022-12-27T09:51:13.882Z,6.82
2022-12-27T09:52:13.817Z,6.78
2022-12-27T09:53:13.760Z,6.75
2022-12-27T09:54:13.689Z,6.75
2022-12-27T09:55:13.615Z,6.69
2022-12-27T09:56:13.546Z,6.65
2022-12-27T09:57:20.980Z,6.71
2022-12-27T09:58:13.418Z,6.81
2022-12-27T09:59:13.345Z,6.76
2022-12-27T10:00:13.279Z,6.86
2022-12-27T10:01:13.342Z,6.65
2022-12-27T10:02:13.251Z,6.79
2022-12-27T10:03:13.080Z,6.63
2022-12-27T10:04:13.066Z,6.72
2022-12-27T10:06:12.891Z,6.72
2022-12-27T10:07:12.815Z,6.58
2022-12-27T10:08:12.742Z,6.61
2022-12-27T10:09:12.675Z,6.63
2022-12-27T10:10:12.606Z,6.72
2022-12-27T10:11:12.542Z,6.64
2022-12-27T10:12:12.511Z,6.71
2022-12-27T10:13:12.421Z,6.63
2022-12-27T10:14:12.339Z,6.76
2022-12-27T10:15:12.270Z,6.71
2022-12-27T10:16:12.241Z,6.72
2022-12-27T10:17:12.134Z,6.78
2022-12-27T10:18:12.068Z,6.78
2022-12-27T10:19:12.044Z,6.75
2022-12-27T10:20:11.935Z,6.72
2022-12-27T10:21:11.871Z,6.82
2022-12-27T10:22:11.809Z,6.97
2022-12-27T10:23:11.731Z,6.99
2022-12-27T10:24:11.663Z,7.19
2022-12-27T10:25:11.594Z,7.33
2022-12-27T10:26:11.543Z,7.45
2022-12-27T10:27:11.470Z,7.44
2022-12-27T10:28:11.404Z,7.37
2022-12-27T10:29:11.331Z,7.27
2022-12-27T10:30:11.262Z,7.21
2022-12-27T10:31:11.242Z,7.26
2022-12-27T10:32:11.152Z,7.14
2022-12-27T10:33:11.054Z,7.07
2022-12-27T10:34:11.101Z,7.09
2022-12-27T10:35:10.930Z,7.15
2022-12-27T10:36:10.862Z,7.15
2022-12-27T10:37:10.792Z,7.14
2022-12-27T10:38:10.726Z,7.05
2022-12-27T10:39:10.660Z,7.14
2022-12-27T10:40:10.615Z,7.11
2022-12-27T10:41:10.530Z,7.08
2022-12-27T10:42:10.456Z,7.09
2022-12-27T10:43:10.393Z,7.08
2022-12-27T10:44:10.324Z,7.15
2022-12-27T10:45:10.259Z,7.12
2022-12-27T10:46:10.225Z,7.14
2022-12-27T10:47:10.157Z,7.09
2022-12-27T10:48:10.060Z,7.09
2022-12-27T10:49:25.247Z,7.04
2022-12-27T10:50:09.920Z,6.97
2022-12-27T10:51:09.872Z,6.99
2022-12-27T10:52:09.794Z,7.01
2022-12-27T10:53:09.724Z,6.91
2022-12-27T10:54:09.656Z,6.97
2022-12-27T10:55:09.584Z,7.00
2022-12-27T10:56:09.533Z,6.96
2022-12-27T10:57:09.454Z,6.96
2022-12-27T10:58:09.395Z,6.99
2022-12-27T10:59:09.316Z,6.99
2022-12-27T11:00:09.245Z,6.90
2022-12-27T11:01:09.210Z,7.01
2022-12-27T11:02:09.225Z,6.99
2022-12-27T11:03:09.154Z,7.04
2022-12-27T11:04:11.847Z,6.89
2022-12-27T11:05:08.909Z,6.99
2022-12-27T11:06:08.845Z,6.99
2022-12-27T11:07:08.773Z,6.97
2022-12-27T11:08:08.711Z,6.93
2022-12-27T11:09:08.639Z,6.90
2022-12-27T11:10:08.579Z,6.97
2022-12-27T11:11:08.504Z,6.94
2022-12-27T11:12:08.440Z,7.00
2022-12-27T11:13:08.369Z,7.00
2022-12-27T11:14:08.305Z,6.97
2022-12-27T11:15:08.240Z,6.97
2022-12-27T11:16:08.183Z,7.00
2022-12-27T11:17:08.097Z,6.97
2022-12-27T11:18:08.031Z,6.93
2022-12-27T11:19:07.964Z,7.01
2022-12-27T11:20:07.903Z,6.99
2022-12-27T11:21:09.628Z,7.00
2022-12-27T11:22:07.760Z,6.87
2022-12-27T11:23:07.692Z,6.96
2022-12-27T11:24:07.628Z,7.00
2022-12-27T11:25:07.554Z,6.96
2022-12-27T11:26:07.486Z,7.07
2022-12-27T11:27:07.428Z,7.07
2022-12-27T11:28:07.361Z,7.15
2022-12-27T11:29:07.288Z,7.05
2022-12-27T11:30:07.220Z,7.09
2022-12-27T11:31:07.192Z,6.93
2022-12-27T11:32:07.087Z,7.09
2022-12-27T11:33:07.023Z,7.04
2022-12-27T11:34:06.949Z,7.12
2022-12-27T11:35:06.880Z,7.04
2022-12-27T11:36:06.812Z,7.08
2022-12-27T11:37:06.750Z,7.07
2022-12-27T11:38:06.676Z,7.14
2022-12-27T11:39:06.607Z,7.07
2022-12-27T11:40:06.541Z,7.14
2022-12-27T11:41:06.473Z,7.14
2022-12-27T11:42:06.407Z,7.18
2022-12-27T11:43:06.357Z,7.14
2022-12-27T11:44:06.279Z,7.15
2022-12-27T11:45:06.198Z,7.24
2022-12-27T11:46:06.178Z,7.15
2022-12-27T11:47:06.127Z,7.18
2022-12-27T11:48:06.019Z,7.26
2022-12-27T11:49:05.932Z,7.18
2022-12-27T11:50:05.862Z,7.18
2022-12-27T11:51:05.810Z,7.19
2022-12-27T11:52:05.737Z,7.15
2022-12-27T11:53:05.669Z,7.16
2022-12-27T11:54:05.606Z,7.11
2022-12-27T11:55:05.528Z,7.11
2022-12-27T11:56:05.463Z,7.09
2022-12-27T11:57:05.403Z,7.07
2022-12-27T11:58:05.326Z,7.12
2022-12-27T11:59:05.260Z,7.14
2022-12-27T12:00:05.200Z,7.09
2022-12-27T12:01:05.628Z,7.07
2022-12-27T12:02:05.146Z,7.09
2022-12-27T12:03:05.047Z,7.15
2022-12-27T12:04:04.921Z,7.15
2022-12-27T12:05:04.903Z,7.21
2022-12-27T12:06:04.784Z,7.19
2022-12-27T12:07:04.716Z,7.15
2022-12-27T12:08:04.669Z,7.24
2022-12-27T12:09:04.579Z,7.15
2022-12-27T12:10:04.518Z,7.18
2022-12-27T12:11:04.446Z,7.16
2022-12-27T12:12:04.391Z,7.19
2022-12-27T12:13:04.315Z,7.16
2022-12-27T12:14:04.255Z,7.23
2022-12-27T12:15:04.185Z,7.19
2022-12-27T12:16:04.171Z,7.15
2022-12-27T12:17:04.043Z,7.23
2022-12-27T12:18:03.984Z,7.16
2022-12-27T12:19:03.921Z,7.16
2022-12-27T12:20:03.845Z,7.24
2022-12-27T12:21:03.769Z,7.27
2022-12-27T12:22:03.704Z,7.30
2022-12-27T12:23:03.643Z,7.21
2022-12-27T12:24:03.572Z,7.26
2022-12-27T12:25:03.502Z,7.27
2022-12-27T12:26:03.449Z,7.29
2022-12-27T12:27:03.382Z,7.37
2022-12-27T12:28:09.742Z,7.24
2022-12-27T12:29:03.235Z,7.37
2022-12-27T12:30:03.170Z,7.30
2022-12-27T12:31:03.094Z,7.34
2022-12-27T12:32:03.080Z,7.44
2022-12-27T12:33:02.968Z,7.42
2022-12-27T12:34:02.892Z,7.47
2022-12-27T12:35:02.826Z,7.45
2022-12-27T12:36:02.768Z,7.55
2022-12-27T12:37:02.693Z,7.48
2022-12-27T12:38:02.638Z,7.62
2022-12-27T12:39:02.592Z,7.67
2022-12-27T12:40:02.495Z,7.70
2022-12-27T12:41:02.423Z,7.74
2022-12-27T12:42:02.365Z,7.73
2022-12-27T12:43:02.287Z,7.70
2022-12-27T12:44:02.221Z,7.74
2022-12-27T12:45:02.155Z,7.77
2022-12-27T12:46:02.159Z,7.73
2022-12-27T12:47:02.019Z,7.79
2022-12-27T12:48:01.951Z,7.70
2022-12-27T12:49:01.887Z,7.70
2022-12-27T12:50:01.826Z,7.66
2022-12-27T12:51:01.749Z,7.69
2022-12-27T12:52:01.689Z,7.66
2022-12-27T12:53:01.623Z,7.63
2022-12-27T12:54:01.548Z,7.63
2022-12-27T12:55:01.479Z,7.62
2022-12-27T12:56:01.418Z,7.69
2022-12-27T12:57:01.358Z,7.60
2022-12-27T12:58:01.277Z,7.50
2022-12-27T12:59:01.211Z,7.50
2022-12-27T13:00:01.156Z,7.55
2022-12-27T13:01:01.097Z,7.50
2022-12-27T13:02:01.221Z,7.50
2022-12-27T13:03:01.078Z,7.51
2022-12-27T13:04:00.877Z,7.54
2022-12-27T13:05:00.809Z,7.50
2022-12-27T13:06:00.744Z,7.48
2022-12-27T13:07:00.674Z,7.54
2022-12-27T13:08:00.616Z,7.52
2022-12-27T13:09:00.551Z,7.52
2022-12-27T13:10:00.473Z,7.50
2022-12-27T13:11:00.410Z,7.44
2022-12-27T13:12:00.340Z,7.39
2022-12-27T13:13:00.272Z,7.44
2022-12-27T13:14:00.212Z,7.45
2022-12-27T13:15:00.144Z,7.42
2022-12-27T13:16:00.101Z,7.42
2022-12-27T13:17:00.027Z,7.48
2022-12-27T13:17:59.936Z,7.36
2022-12-27T13:18:59.867Z,7.33
2022-12-27T13:19:59.799Z,7.34
2022-12-27T13:20:59.731Z,7.34